Time;durP1;ratioP1;P1;durP2;ratioP2;P2;SDS_P1;SDS_P2;PMS_P1;PMS_P2;Temp;Humidity;BMP_temperature;BMP_pressure;BME280_temperature;BME280_humidity;BME280_pressure;Samples;Min_cycle;Max_cycle;Signal;HPM_P1;HPM_P2
2023/09/29 00:02:28;;;;;;;8.30;5.45;;;12.90;68.20;;;;;;5168281;28;20038;-72
2023/09/29 00:05:02;;;;;;;6.72;4.97;;;12.80;99.90;;;;;;5136856;28;20327;-68
2023/09/29 00:07:42;;;;;;;6.80;5.10;;;12.80;99.90;;;;;;5125761;28;20148;-70
2023/09/29 00:10:16;;;;;;;6.22;5.32;;;12.80;99.90;;;;;;5131360;28;20345;-70
2023/09/29 00:12:51;;;;;;;9.02;5.22;;;12.80;99.90;;;;;;5158844;28;20061;-70
2023/09/29 00:15:25;;;;;;;12.10;5.75;;;12.70;99.90;;;;;;5139243;28;20034;-68
2023/09/29 00:18:03;;;;;;;7.15;4.88;;;12.70;99.90;;;;;;5172164;28;20250;-69
2023/09/29 00:20:35;;;;;;;5.80;4.70;;;12.70;99.90;;;;;;5146692;28;20041;-70
2023/09/29 00:23:12;;;;;;;7.70;5.30;;;12.60;99.90;;;;;;5161988;28;20042;-71
2023/09/29 00:25:46;;;;;;;7.53;5.70;;;12.50;99.90;;;;;;5177934;28;20052;-70
2023/09/29 00:28:27;;;;;;;7.93;5.35;;;12.50;99.90;;;;;;5176847;28;20051;-70
2023/09/29 00:31:06;;;;;;;8.38;5.00;;;12.50;99.90;;;;;;5139950;28;20042;-70
2023/09/29 00:33:39;;;;;;;8.32;5.20;;;12.50;99.90;;;;;;5148935;28;20042;-69
2023/09/29 00:36:14;;;;;;;7.97;5.13;;;12.50;99.90;;;;;;5146721;28;20533;-69
2023/09/29 00:38:49;;;;;;;8.00;5.32;;;12.40;99.90;;;;;;5157255;28;20041;-68
2023/09/29 00:41:22;;;;;;;6.05;4.35;;;12.40;99.90;;;;;;5177542;28;20041;-71
2023/09/29 00:43:58;;;;;;;7.28;4.93;;;12.40;99.90;;;;;;5162665;28;20030;-70
2023/09/29 00:46:30;;;;;;;7.38;4.90;;;12.40;99.90;;;;;;5159099;28;20496;-69
2023/09/29 00:49:01;;;;;;;6.82;5.45;;;12.40;99.90;;;;;;5175335;28;20058;-69
2023/09/29 00:51:39;;;;;;;7.97;5.28;;;12.30;99.90;;;;;;5178610;28;20049;-70
2023/09/29 00:54:14;;;;;;;8.05;5.55;;;12.30;99.90;;;;;;5174323;28;20433;-70
2023/09/29 00:56:48;;;;;;;8.50;5.22;;;12.20;99.90;;;;;;5161272;28;20049;-70
2023/09/29 00:59:24;;;;;;;8.63;4.90;;;12.20;99.90;;;;;;5145627;28;20056;-69
2023/09/29 01:01:56;;;;;;;7.30;5.25;;;12.10;99.90;;;;;;5203102;23;20140;-69
2023/09/29 01:04:29;;;;;;;5.88;5.28;;;12.20;99.90;;;;;;5173129;28;20052;-70
2023/09/29 01:07:04;;;;;;;9.13;5.28;;;12.20;99.90;;;;;;5182817;28;20257;-70
2023/09/29 01:09:42;;;;;;;10.00;5.97;;;12.30;99.90;;;;;;5166080;28;20060;-70
2023/09/29 01:12:29;;;;;;;12.02;6.10;;;12.30;99.90;;;;;;5149712;28;20627;-68
2023/09/29 01:15:01;;;;;;;8.50;5.63;;;12.20;99.90;;;;;;5163822;28;20041;-70
2023/09/29 01:17:35;;;;;;;7.25;5.28;;;12.10;99.90;;;;;;5183028;28;20068;-69
2023/09/29 01:20:16;;;;;;;8.05;5.72;;;12.10;99.90;;;;;;5177178;28;20049;-70
2023/09/29 01:22:48;;;;;;;6.80;5.10;;;12.10;99.90;;;;;;5177668;28;20448;-70
2023/09/29 01:25:23;;;;;;;7.45;5.95;;;12.10;99.90;;;;;;5167829;28;20045;-70
2023/09/29 01:27:57;;;;;;;5.93;4.93;;;12.00;99.90;;;;;;5197719;28;20046;-69
2023/09/29 01:30:29;;;;;;;6.13;5.28;;;11.90;99.90;;;;;;5164191;28;20198;-71
2023/09/29 01:33:03;;;;;;;9.38;5.05;;;11.90;99.90;;;;;;5197071;28;20265;-70
2023/09/29 01:35:39;;;;;;;9.35;5.53;;;11.90;99.90;;;;;;5152874;28;20305;-69
2023/09/29 01:38:13;;;;;;;7.32;4.95;;;11.90;99.90;;;;;;5180729;28;20049;-68
2023/09/29 01:40:45;;;;;;;7.40;5.50;;;11.90;99.90;;;;;;5181592;28;20041;-69
2023/09/29 01:43:22;;;;;;;7.43;5.10;;;11.90;99.90;;;;;;5182490;28;20097;-69
2023/09/29 01:45:56;;;;;;;6.63;4.70;;;11.90;99.90;;;;;;5162623;28;20116;-70
2023/09/29 01:48:27;;;;;;;10.13;5.93;;;11.80;99.90;;;;;;5177529;28;20490;-69
2023/09/29 01:51:02;;;;;;;9.57;5.38;;;11.80;99.90;;;;;;5197228;28;20042;-70
2023/09/29 01:53:35;;;;;;;7.40;5.20;;;11.70;99.90;;;;;;5176622;28;20044;-70
2023/09/29 01:56:07;;;;;;;5.95;5.15;;;11.70;99.90;;;;;;5195799;28;20106;-69
2023/09/29 01:58:40;;;;;;;7.43;5.53;;;11.60;99.90;;;;;;5173526;28;20068;-70
2023/09/29 02:01:16;;;;;;;5.57;5.00;;;11.60;99.90;;;;;;5192834;28;20042;-69
2023/09/29 02:03:54;;;;;;;6.43;5.15;;;11.70;99.90;;;;;;5181824;28;20119;-69
2023/09/29 02:06:31;;;;;;;6.45;5.63;;;11.60;99.90;;;;;;5196475;28;20043;-69
2023/09/29 02:09:08;;;;;;;7.82;6.05;;;11.60;99.90;;;;;;5171964;28;20608;-71
2023/09/29 02:11:45;;;;;;;7.32;5.60;;;11.60;99.90;;;;;;5196354;28;20045;-71
2023/09/29 02:14:17;;;;;;;8.00;5.20;;;11.60;99.90;;;;;;5149928;28;20045;-70
2023/09/29 02:16:51;;;;;;;7.45;5.65;;;11.70;99.90;;;;;;5144654;28;20051;-70
2023/09/29 02:19:25;;;;;;;6.65;5.40;;;11.70;99.90;;;;;;5160537;28;20049;-69
2023/09/29 02:21:59;;;;;;;9.70;5.50;;;11.70;99.90;;;;;;5197278;28;20037;-70
2023/09/29 02:24:33;;;;;;;6.72;5.03;;;11.60;99.90;;;;;;5164632;28;20041;-71
2023/09/29 02:27:07;;;;;;;8.00;5.32;;;11.50;99.90;;;;;;5197406;28;20388;-70
2023/09/29 02:29:43;;;;;;;7.10;5.32;;;11.50;99.90;;;;;;5178144;28;20151;-70
2023/09/29 02:32:24;;;;;;;8.23;5.30;;;11.50;99.90;;;;;;5171479;28;20067;-70
2023/09/29 02:35:01;;;;;;;7.78;5.70;;;11.50;99.90;;;;;;5194443;28;20037;-70
2023/09/29 02:37:32;;;;;;;8.95;5.70;;;11.40;99.90;;;;;;5181668;28;20452;-69
2023/09/29 02:40:12;;;;;;;7.88;5.38;;;11.40;99.90;;;;;;5180789;28;20051;-69
2023/09/29 02:42:47;;;;;;;6.30;4.68;;;11.40;99.90;;;;;;5159443;28;20047;-69
2023/09/29 02:45:18;;;;;;;7.13;5.68;;;11.30;99.90;;;;;;5178514;28;20059;-68
2023/09/29 02:47:55;;;;;;;6.97;5.40;;;11.20;99.90;;;;;;5164556;28;20380;-69
2023/09/29 02:50:30;;;;;;;8.00;5.65;;;11.20;99.90;;;;;;5151487;28;20088;-71
2023/09/29 02:53:25;;;;;;;7.57;5.95;;;11.10;99.90;;;;;;5168106;28;20046;-68
2023/09/29 02:56:11;;;;;;;7.68;5.47;;;11.10;99.90;;;;;;5162528;28;20042;-69
2023/09/29 02:58:49;;;;;;;10.00;6.00;;;11.10;99.90;;;;;;5191746;28;20091;-69
2023/09/29 03:01:22;;;;;;;8.27;5.85;;;11.10;99.90;;;;;;5177968;28;20063;-67
2023/09/29 03:03:58;;;;;;;8.13;5.18;;;11.10;99.90;;;;;;5180036;28;20474;-68
2023/09/29 03:06:29;;;;;;;9.02;5.75;;;11.10;99.90;;;;;;5196280;28;20033;-68
2023/09/29 03:09:13;;;;;;;6.28;5.47;;;11.00;99.90;;;;;;5180892;28;20029;-68
2023/09/29 03:11:45;;;;;;;8.10;5.25;;;11.00;99.90;;;;;;5182619;28;20030;-69
2023/09/29 03:14:17;;;;;;;9.05;5.93;;;11.00;99.90;;;;;;5180383;28;20127;-69
2023/09/29 03:16:53;;;;;;;7.70;5.20;;;10.90;99.90;;;;;;5157835;28;20056;-69
2023/09/29 03:19:31;;;;;;;9.35;5.75;;;10.90;99.90;;;;;;5160826;28;20373;-69
2023/09/29 03:22:05;;;;;;;9.32;5.20;;;10.90;99.90;;;;;;5193786;28;20486;-69
2023/09/29 03:24:43;;;;;;;6.80;5.57;;;10.90;99.90;;;;;;5164475;28;20029;-69
2023/09/29 03:27:17;;;;;;;8.38;5.50;;;10.80;99.90;;;;;;5180274;28;20051;-69
2023/09/29 03:29:49;;;;;;;8.38;5.68;;;10.90;99.90;;;;;;5198585;28;20049;-69
2023/09/29 03:32:21;;;;;;;7.72;5.50;;;10.90;99.90;;;;;;5178401;28;20157;-70
2023/09/29 03:34:58;;;;;;;6.35;5.28;;;10.90;99.90;;;;;;5163639;28;20182;-70
2023/09/29 03:37:39;;;;;;;9.00;5.30;;;10.90;99.90;;;;;;5192771;28;20041;-68
2023/09/29 03:40:18;;;;;;;7.40;5.40;;;10.80;99.90;;;;;;5180303;28;20398;-70
2023/09/29 03:42:52;;;;;;;7.03;5.13;;;10.90;99.90;;;;;;5149945;28;20059;-69
2023/09/29 03:45:26;;;;;;;8.25;5.95;;;10.90;99.90;;;;;;5145956;28;20038;-69
2023/09/29 03:48:04;;;;;;;7.22;4.97;;;10.90;99.90;;;;;;5179776;28;20375;-70
2023/09/29 03:50:39;;;;;;;6.55;5.18;;;10.90;99.90;;;;;;5198083;28;20049;-69
2023/09/29 03:53:13;;;;;;;6.78;4.90;;;10.80;99.90;;;;;;5182804;28;20501;-70
2023/09/29 03:55:45;;;;;;;7.07;5.55;;;10.90;99.90;;;;;;5147942;28;20049;-70
2023/09/29 03:58:16;;;;;;;7.50;5.65;;;10.80;99.90;;;;;;5162231;28;20142;-71
2023/09/29 04:00:54;;;;;;;6.60;5.38;;;10.70;99.90;;;;;;5145328;28;20045;-70
2023/09/29 04:03:34;;;;;;;9.07;5.75;;;10.70;99.90;;;;;;5163836;28;20044;-71
2023/09/29 04:06:06;;;;;;;8.27;4.90;;;10.70;99.90;;;;;;5164213;28;20148;-69
2023/09/29 04:08:46;;;;;;;8.07;5.88;;;10.70;99.90;;;;;;5153141;28;20044;-68
2023/09/29 04:11:23;;;;;;;7.57;5.82;;;10.80;99.90;;;;;;5166264;28;20045;-69
2023/09/29 04:13:57;;;;;;;14.00;6.32;;;10.80;99.90;;;;;;5168779;28;20067;-69
2023/09/29 04:16:32;;;;;;;7.47;5.35;;;10.90;99.90;;;;;;5180741;28;20029;-69
2023/09/29 04:19:05;;;;;;;10.00;5.75;;;10.90;99.90;;;;;;5178276;28;20398;-69
2023/09/29 04:21:37;;;;;;;6.85;5.57;;;10.90;99.90;;;;;;5177909;28;20063;-69
2023/09/29 04:24:11;;;;;;;7.32;4.95;;;10.90;99.90;;;;;;5183300;28;20045;-69
2023/09/29 04:26:49;;;;;;;6.13;5.05;;;10.80;99.90;;;;;;5183063;28;20051;-69
2023/09/29 04:29:25;;;;;;;5.90;4.80;;;10.80;99.90;;;;;;5150012;28;20034;-71
2023/09/29 04:31:57;;;;;;;6.90;5.13;;;10.80;99.90;;;;;;5196087;28;20044;-69
2023/09/29 04:34:31;;;;;;;9.02;5.22;;;10.80;99.90;;;;;;5188817;28;20048;-70
2023/09/29 04:37:03;;;;;;;9.38;5.75;;;10.80;99.90;;;;;;5173101;28;20037;-70
2023/09/29 04:39:34;;;;;;;8.75;6.13;;;10.80;99.90;;;;;;5156793;28;20075;-70
2023/09/29 04:42:14;;;;;;;9.27;5.85;;;10.80;99.90;;;;;;5170387;28;20049;-70
2023/09/29 04:44:46;;;;;;;7.55;5.15;;;10.70;99.90;;;;;;5188313;28;20143;-70
2023/09/29 04:47:18;;;;;;;7.15;5.45;;;10.60;99.90;;;;;;5178358;28;20021;-70
2023/09/29 04:49:49;;;;;;;10.38;6.70;;;10.60;99.90;;;;;;5144077;28;20041;-69
2023/09/29 04:52:25;;;;;;;8.18;5.68;;;10.60;99.90;;;;;;5196060;28;20080;-69
2023/09/29 04:54:59;;;;;;;11.23;6.88;;;10.60;99.90;;;;;;5169157;28;20056;-68
2023/09/29 04:57:33;;;;;;;8.52;6.25;;;10.60;99.90;;;;;;5177535;28;20059;-68
2023/09/29 05:00:06;;;;;;;8.52;5.72;;;10.70;99.90;;;;;;5189534;28;20041;-68
2023/09/29 05:02:41;;;;;;;8.13;5.55;;;10.80;99.90;;;;;;5150041;28;20257;-67
2023/09/29 05:05:13;;;;;;;13.00;6.55;;;10.70;99.90;;;;;;5163072;28;20039;-68
2023/09/29 05:07:47;;;;;;;8.52;5.45;;;10.70;99.90;;;;;;5197680;28;20037;-67
2023/09/29 05:10:19;;;;;;;6.82;5.32;;;10.70;99.90;;;;;;5195883;28;20040;-68
2023/09/29 05:12:51;;;;;;;9.00;5.35;;;10.90;99.90;;;;;;5191929;28;20041;-68
2023/09/29 05:15:24;;;;;;;8.80;5.82;;;11.00;99.90;;;;;;5170625;28;20666;-68
2023/09/29 05:17:56;;;;;;;8.37;5.77;;;11.20;99.90;;;;;;5196484;28;20448;-69
2023/09/29 05:20:30;;;;;;;11.93;5.63;;;11.30;99.90;;;;;;5197657;28;20021;-68
2023/09/29 05:23:04;;;;;;;7.55;5.38;;;11.40;99.90;;;;;;5178621;28;20038;-67
2023/09/29 05:25:41;;;;;;;8.85;6.00;;;11.60;99.90;;;;;;5195715;28;20025;-67
2023/09/29 05:28:16;;;;;;;8.00;4.95;;;11.60;99.90;;;;;;5149417;28;20040;-67
2023/09/29 05:30:54;;;;;;;8.43;5.20;;;11.80;99.90;;;;;;5162087;28;20052;-67
2023/09/29 05:33:26;;;;;;;7.65;5.38;;;11.90;99.90;;;;;;5191710;28;20269;-67
2023/09/29 05:36:03;;;;;;;5.70;5.00;;;12.00;99.90;;;;;;5179776;28;20057;-67
2023/09/29 05:38:35;;;;;;;6.95;5.53;;;12.10;99.90;;;;;;5178641;28;20029;-70
2023/09/29 05:41:09;;;;;;;8.25;5.13;;;12.30;99.90;;;;;;5179346;28;20034;-68
2023/09/29 05:43:40;;;;;;;12.25;6.22;;;12.50;99.90;;;;;;5194278;28;20033;-68
2023/09/29 05:46:14;;;;;;;8.60;5.82;;;12.70;99.90;;;;;;5190622;28;20037;-67
2023/09/29 05:48:46;;;;;;;7.65;5.45;;;12.90;99.90;;;;;;5188030;28;20052;-68
2023/09/29 05:51:17;;;;;;;6.82;5.45;;;13.00;99.90;;;;;;5182448;28;20039;-69
2023/09/29 05:53:49;;;;;;;8.02;5.18;;;13.20;99.90;;;;;;5197428;28;20513;-68
2023/09/29 05:56:20;;;;;;;7.32;5.50;;;13.40;9.40;;;;;;5197512;28;20029;-69
2023/09/29 05:58:58;;;;;;;6.50;5.20;;;13.60;1.00;;;;;;5179283;28;20342;-68
2023/09/29 06:01:29;;;;;;;8.95;5.88;;;13.80;1.00;;;;;;5190117;28;20033;-68
2023/09/29 06:04:04;;;;;;;10.05;4.68;;;14.00;1.00;;;;;;5147713;28;20045;-68
2023/09/29 06:06:40;;;;;;;6.03;5.10;;;14.20;1.00;;;;;;5199195;28;20448;-68
2023/09/29 06:09:15;;;;;;;5.32;4.50;;;14.30;1.00;;;;;;5192720;28;20060;-71
2023/09/29 06:11:46;;;;;;;7.65;5.20;;;14.30;1.00;;;;;;5172161;28;20045;-68
2023/09/29 06:14:18;;;;;;;6.53;4.82;;;14.30;1.00;;;;;;5197417;28;20026;-69
2023/09/29 06:16:49;;;;;;;7.38;5.35;;;14.30;1.00;;;;;;5196630;28;20586;-67
2023/09/29 06:19:21;;;;;;;7.07;5.53;;;14.50;1.00;;;;;;5176581;28;20092;-67
2023/09/29 06:21:52;;;;;;;6.15;5.00;;;14.70;1.00;;;;;;5180207;28;20044;-70
2023/09/29 06:24:23;;;;;;;7.43;4.38;;;14.90;1.00;;;;;;5196335;28;20037;-69
2023/09/29 06:26:55;;;;;;;8.68;5.22;;;15.20;1.00;;;;;;5197374;28;20029;-70
2023/09/29 06:29:30;;;;;;;5.97;4.43;;;15.50;99.90;;;;;;5192608;28;20029;-68
2023/09/29 06:32:02;;;;;;;6.50;4.72;;;15.80;1.00;;;;;;5192660;28;20326;-69
2023/09/29 06:34:33;;;;;;;9.40;4.53;;;16.20;99.90;;;;;;5197574;28;20230;-68
2023/09/29 06:37:09;;;;;;;7.88;4.60;;;16.50;1.00;;;;;;5179281;28;20033;-69
2023/09/29 06:39:41;;;;;;;6.30;4.63;;;16.70;1.00;;;;;;5193107;28;20037;-68
2023/09/29 06:42:17;;;;;;;5.20;4.35;;;16.90;1.00;;;;;;5163300;28;20352;-68
2023/09/29 06:44:49;;;;;;;8.18;5.18;;;17.20;1.00;;;;;;5192714;28;20407;-68
2023/09/29 06:47:20;;;;;;;8.18;4.45;;;17.30;1.00;;;;;;5195800;28;20029;-67
2023/09/29 06:49:53;;;;;;;7.35;5.05;;;17.50;1.00;;;;;;5186969;28;20055;-69
2023/09/29 06:52:27;;;;;;;6.22;4.90;;;17.70;1.00;;;;;;5192239;28;20575;-68
2023/09/29 06:55:01;;;;;;;7.95;4.85;;;17.90;1.00;;;;;;5181287;28;20030;-70
2023/09/29 06:57:32;;;;;;;10.45;5.68;;;17.80;1.00;;;;;;5161382;28;20076;-68
2023/09/29 07:00:08;;;;;;;6.95;4.50;;;17.80;1.00;;;;;;5149883;28;20042;-67
2023/09/29 07:02:43;;;;;;;6.53;4.78;;;17.90;1.00;;;;;;5179794;28;20046;-68
2023/09/29 07:05:17;;;;;;;6.25;5.00;;;18.00;1.00;;;;;;5197994;28;20040;-68
2023/09/29 07:07:52;;;;;;;6.90;4.18;;;17.90;1.00;;;;;;5182190;28;20042;-68
2023/09/29 07:10:26;;;;;;;5.50;4.53;;;17.80;1.00;;;;;;5175026;28;20370;-68
2023/09/29 07:13:00;;;;;;;5.15;4.53;;;18.10;1.00;;;;;;5182727;28;20049;-70
2023/09/29 07:15:32;;;;;;;;;;;18.50;1.00;;;;;;5177471;28;20037;-69
2023/09/29 07:18:04;;;;;;;7.55;4.78;;;18.90;1.00;;;;;;5169353;28;19944;-68
2023/09/29 07:20:35;;;;;;;5.85;4.55;;;19.20;1.00;;;;;;5197702;28;20025;-68
2023/09/29 07:23:08;;;;;;;7.25;5.38;;;19.40;1.00;;;;;;5199060;28;20037;-70
2023/09/29 07:25:40;;;;;;;7.28;4.45;;;19.60;1.00;;;;;;5191713;28;20048;-67
2023/09/29 07:28:14;;;;;;;7.32;3.88;;;19.70;1.00;;;;;;5194994;28;20557;-70
2023/09/29 07:30:52;;;;;;;6.72;4.72;;;20.00;1.00;;;;;;5170264;28;20065;-69
2023/09/29 07:33:29;;;;;;;5.78;4.45;;;20.00;1.00;;;;;;5148898;28;20034;-68
2023/09/29 07:36:01;;;;;;;5.95;5.28;;;20.00;1.00;;;;;;5199949;28;20450;-68
2023/09/29 07:38:32;;;;;;;7.70;4.55;;;20.20;1.00;;;;;;5162598;28;20234;-69
2023/09/29 07:41:06;;;;;;;6.57;4.95;;;20.40;1.00;;;;;;5149659;28;20033;-69
2023/09/29 07:43:41;;;;;;;9.30;5.47;;;20.70;1.00;;;;;;5202712;28;20131;-68
2023/09/29 07:46:15;;;;;;;6.80;4.18;;;20.70;1.00;;;;;;5200579;28;20050;-69
2023/09/29 07:48:47;;;;;;;5.63;4.30;;;21.00;1.00;;;;;;5201119;28;20257;-68
2023/09/29 07:51:19;;;;;;;8.05;4.00;;;21.00;1.00;;;;;;5154337;28;20053;-69
2023/09/29 07:53:51;;;;;;;5.07;3.92;;;21.00;1.00;;;;;;5210718;28;20034;-68
2023/09/29 07:56:26;;;;;;;6.55;4.90;;;21.10;1.00;;;;;;5185250;28;20064;-67
2023/09/29 07:59:02;;;;;;;15.25;4.82;;;21.30;1.00;;;;;;5181497;28;20402;-68
2023/09/29 08:01:36;;;;;;;8.95;4.57;;;21.70;1.00;;;;;;5182334;28;20037;-67
2023/09/29 08:04:08;;;;;;;6.03;4.72;;;21.70;1.00;;;;;;5196492;28;20021;-67
2023/09/29 08:06:41;;;;;;;8.48;4.45;;;22.00;1.00;;;;;;5203186;28;20041;-70
2023/09/29 08:09:12;;;;;;;6.93;4.90;;;22.30;1.00;;;;;;5190775;28;20042;-67
2023/09/29 08:11:44;;;;;;;6.80;4.70;;;22.40;1.00;;;;;;5162158;28;20045;-67
2023/09/29 08:14:18;;;;;;;9.90;4.45;;;22.60;1.00;;;;;;5183138;28;20032;-68
2023/09/29 08:16:50;;;;;;;5.18;3.97;;;22.70;1.00;;;;;;5166651;28;20030;-67
2023/09/29 08:19:24;;;;;;;7.25;3.95;;;22.90;1.00;;;;;;5179779;28;20337;-69
2023/09/29 08:21:58;;;;;;;10.57;4.10;;;23.20;1.00;;;;;;5174049;28;20502;-68
2023/09/29 08:24:39;;;;;;;5.07;4.38;;;23.60;1.00;;;;;;5150590;28;21991;-69
2023/09/29 08:27:11;;;;;;;7.10;3.88;;;23.60;1.00;;;;;;5184590;28;20037;-67
2023/09/29 08:29:42;;;;;;;9.48;4.43;;;23.40;1.00;;;;;;5196074;28;20532;-69
2023/09/29 08:32:19;;;;;;;5.50;4.22;;;23.30;1.00;;;;;;5176595;28;20056;-68
2023/09/29 08:34:50;;;;;;;6.50;4.10;;;23.10;1.00;;;;;;5191851;28;20033;-71
2023/09/29 08:37:22;;;;;;;8.40;4.03;;;23.50;1.00;;;;;;5167591;28;20120;-69
2023/09/29 08:39:53;;;;;;;7.53;3.72;;;23.70;1.00;;;;;;5186372;28;20241;-68
2023/09/29 08:42:44;;;;;;;4.30;3.65;;;23.90;1.00;;;;;;5183896;28;20045;-68
2023/09/29 08:45:19;;;;;;;4.70;3.47;;;23.50;1.00;;;;;;5175350;28;20075;-69
2023/09/29 08:47:52;;;;;;;5.10;3.22;;;23.40;1.00;;;;;;5173195;28;20047;-69
2023/09/29 08:50:29;;;;;;;4.97;3.80;;;23.70;1.00;;;;;;5200906;28;20063;-69
2023/09/29 08:53:03;;;;;;;5.85;3.40;;;24.00;1.00;;;;;;5183992;28;20033;-68
2023/09/29 08:55:37;;;;;;;4.22;3.45;;;24.30;1.00;;;;;;5150967;28;20211;-69
2023/09/29 08:58:11;;;;;;;;;;;24.60;1.00;;;;;;5166791;28;20322;-69
2023/09/29 09:00:45;;;;;;;6.35;3.47;;;25.10;1.00;;;;;;5186262;28;19936;-68
2023/09/29 09:03:18;;;;;;;6.47;4.20;;;25.50;1.00;;;;;;5184226;28;20033;-69
2023/09/29 09:05:55;;;;;;;5.93;3.63;;;25.40;1.00;;;;;;5185395;28;20041;-71
2023/09/29 09:08:27;;;;;;;6.15;3.45;;;25.30;1.00;;;;;;5168476;28;20045;-68
2023/09/29 09:11:00;;;;;;;5.68;3.60;;;25.60;1.00;;;;;;5200885;28;20037;-69
2023/09/29 09:13:34;;;;;;;7.93;3.65;;;26.00;1.00;;;;;;5201351;28;20043;-69
2023/09/29 09:16:07;;;;;;;7.28;3.60;;;26.20;1.00;;;;;;5196955;28;20360;-69
2023/09/29 09:18:41;;;;;;;5.57;3.13;;;26.30;1.00;;;;;;5195374;28;20053;-69
2023/09/29 09:21:13;;;;;;;6.78;3.08;;;26.60;1.00;;;;;;5196823;28;20038;-70
2023/09/29 09:23:45;;;;;;;5.57;3.10;;;26.30;1.00;;;;;;5190871;28;20044;-70
2023/09/29 09:26:16;;;;;;;3.30;2.97;;;26.20;1.00;;;;;;5199489;28;20044;-70
2023/09/29 09:28:50;;;;;;;4.85;3.28;;;26.60;1.00;;;;;;5191651;28;20045;-68
2023/09/29 09:31:22;;;;;;;3.78;2.65;;;26.80;1.00;;;;;;5190986;28;20061;-69
2023/09/29 09:33:54;;;;;;;8.32;3.40;;;27.10;1.00;;;;;;5176452;28;20052;-69
2023/09/29 09:36:27;;;;;;;3.40;3.10;;;27.60;1.00;;;;;;5170230;28;20029;-69
2023/09/29 09:39:03;;;;;;;5.45;3.33;;;27.70;1.00;;;;;;5190450;28;20056;-69
2023/09/29 09:41:39;;;;;;;7.38;3.70;;;27.90;1.00;;;;;;5199381;28;20045;-70
2023/09/29 09:44:11;;;;;;;3.58;3.03;;;28.40;1.00;;;;;;5183842;28;20043;-68
2023/09/29 09:46:57;;;;;;;8.20;2.72;;;28.30;1.00;;;;;;5178894;28;20033;-69
2023/09/29 09:49:50;;;;;;;6.32;3.08;;;28.40;1.00;;;;;;5197449;28;20048;-69
2023/09/29 09:52:34;;;;;;;7.90;2.95;;;28.50;1.00;;;;;;5150656;28;20508;-69
2023/09/29 09:55:13;;;;;;;3.97;3.60;;;28.20;1.00;;;;;;5183991;28;20021;-69
2023/09/29 09:57:50;;;;;;;4.07;3.10;;;29.10;1.00;;;;;;5180582;28;20302;-69
2023/09/29 10:00:24;;;;;;;5.70;3.17;;;29.70;1.00;;;;;;5197509;28;20032;-69
2023/09/29 10:03:03;;;;;;;3.97;2.97;;;30.60;1.00;;;;;;5184435;28;20041;-69
2023/09/29 10:05:41;;;;;;;3.92;3.40;;;30.90;1.00;;;;;;5186965;28;20242;-69
2023/09/29 10:08:29;;;;;;;6.25;3.10;;;31.50;1.00;;;;;;5174296;28;20471;-69
2023/09/29 10:11:17;;;;;;;5.57;3.28;;;31.10;1.00;;;;;;5174313;28;20044;-70
2023/09/29 10:14:07;;;;;;;7.68;3.47;;;32.20;1.00;;;;;;5182668;28;20021;-71
2023/09/29 10:16:41;;;;;;;6.55;2.70;;;32.70;1.00;;;;;;5180685;28;20041;-71
2023/09/29 10:19:16;;;;;;;6.22;3.70;;;32.90;1.00;;;;;;5201008;28;20031;-71
2023/09/29 10:21:50;;;;;;;4.82;3.47;;;33.80;1.00;;;;;;5166969;28;20033;-71
2023/09/29 10:24:26;;;;;;;7.18;3.45;;;33.40;1.00;;;;;;5183528;28;20033;-69
2023/09/29 10:27:11;;;;;;;5.40;3.10;;;33.30;1.00;;;;;;5180779;28;20029;-70
2023/09/29 10:29:53;;;;;;;6.60;3.55;;;33.10;1.00;;;;;;5178035;28;20100;-70
2023/09/29 10:32:33;;;;;;;3.53;2.78;;;33.60;1.00;;;;;;5144765;28;20045;-69
2023/09/29 10:35:11;;;;;;;5.70;3.65;;;34.90;1.00;;;;;;5166396;28;20422;-69
2023/09/29 10:37:54;;;;;;;4.57;2.78;;;35.10;1.00;;;;;;5159783;28;20047;-72
2023/09/29 10:40:32;;;;;;;6.63;3.50;;;35.20;1.00;;;;;;5170101;28;20475;-71
2023/09/29 10:43:06;;;;;;;4.82;2.90;;;35.70;1.00;;;;;;5172376;28;20045;-71
2023/09/29 10:45:40;;;;;;;3.90;3.50;;;36.60;1.00;;;;;;5147539;28;20045;-69
2023/09/29 10:48:12;;;;;;;4.55;3.20;;;36.90;1.00;;;;;;5196710;28;20491;-71
2023/09/29 10:50:52;;;;;;;5.88;3.97;;;37.10;1.00;;;;;;5166245;28;20533;-71
2023/09/29 10:53:23;;;;;;;4.18;2.50;;;37.10;1.00;;;;;;5197111;28;20041;-71
2023/09/29 10:55:59;;;;;;;5.22;3.00;;;36.90;1.00;;;;;;5186316;28;20349;-70
2023/09/29 10:58:38;;;;;;;11.80;3.13;;;37.50;1.00;;;;;;5152906;28;20521;-70
2023/09/29 11:01:16;;;;;;;4.45;3.17;;;37.30;1.00;;;;;;5181927;28;20041;-71
2023/09/29 11:03:51;;;;;;;3.50;2.88;;;37.80;1.00;;;;;;5182249;28;20025;-72
2023/09/29 11:06:23;;;;;;;3.08;2.60;;;38.00;1.00;;;;;;5177286;28;20052;-70
2023/09/29 11:09:02;;;;;;;4.72;3.20;;;38.60;1.00;;;;;;5148757;28;20049;-71
2023/09/29 11:11:36;;;;;;;3.88;3.35;;;38.80;1.00;;;;;;5197588;28;20045;-70
2023/09/29 11:14:08;;;;;;;5.05;3.25;;;38.10;1.00;;;;;;5197466;28;20029;-72
2023/09/29 11:16:40;;;;;;;4.13;3.60;;;37.90;1.00;;;;;;5201111;28;20037;-71
2023/09/29 11:19:15;;;;;;;3.65;2.90;;;38.30;1.00;;;;;;5166743;28;20048;-70
2023/09/29 11:21:47;;;;;;;3.28;2.97;;;38.00;1.00;;;;;;5175974;28;20048;-70
2023/09/29 11:24:19;;;;;;;4.38;2.63;;;38.20;1.00;;;;;;5171550;28;20045;-71
2023/09/29 11:26:55;;;;;;;3.45;2.83;;;38.30;1.00;;;;;;5202176;28;20033;-71
2023/09/29 11:29:28;;;;;;;4.07;2.75;;;38.90;1.00;;;;;;5188509;28;20045;-70
2023/09/29 11:32:04;;;;;;;3.70;2.78;;;39.20;1.00;;;;;;5158212;28;20041;-71
2023/09/29 11:34:35;;;;;;;4.30;3.10;;;38.90;1.00;;;;;;5178893;28;20048;-72
2023/09/29 11:37:12;;;;;;;2.97;2.67;;;39.20;1.00;;;;;;5184254;28;20049;-70
2023/09/29 11:39:44;;;;;;;4.72;3.30;;;39.40;1.00;;;;;;5203998;28;20020;-72
2023/09/29 11:42:24;;;;;;;4.63;2.95;;;38.50;1.00;;;;;;5202907;28;20388;-71
2023/09/29 11:44:59;;;;;;;3.92;3.08;;;39.00;1.00;;;;;;5188260;28;20033;-71
2023/09/29 11:47:30;;;;;;;3.63;2.88;;;39.50;1.00;;;;;;5183302;28;20559;-71
2023/09/29 11:50:02;;;;;;;3.95;2.83;;;40.10;1.00;;;;;;5202100;28;20041;-70
2023/09/29 11:52:39;;;;;;;3.83;2.72;;;38.90;1.00;;;;;;5200184;28;20084;-69
2023/09/29 11:55:15;;;;;;;4.82;3.03;;;38.40;1.00;;;;;;5191279;28;20021;-71
2023/09/29 11:57:51;;;;;;;3.42;2.80;;;38.20;1.00;;;;;;5195462;28;20029;-70
2023/09/29 12:00:25;;;;;;;3.35;2.85;;;38.00;1.00;;;;;;5168325;28;20047;-71
2023/09/29 12:02:56;;;;;;;4.03;2.90;;;38.40;1.00;;;;;;5174484;28;20045;-71
2023/09/29 12:05:34;;;;;;;3.67;2.80;;;39.20;1.00;;;;;;5194559;28;20231;-70
2023/09/29 12:08:11;;;;;;;3.30;3.00;;;39.00;1.00;;;;;;5155634;28;20055;-72
2023/09/29 12:10:48;;;;;;;3.55;3.00;;;37.00;1.00;;;;;;5153966;28;20049;-72
2023/09/29 12:13:19;;;;;;;4.95;2.70;;;37.50;1.00;;;;;;5169601;28;20072;-71
2023/09/29 12:15:51;;;;;;;2.83;2.50;;;37.50;1.00;;;;;;5183688;28;20036;-71
2023/09/29 12:18:28;;;;;;;3.90;2.80;;;37.40;1.00;;;;;;5152327;28;20045;-73
2023/09/29 12:21:10;;;;;;;5.00;3.38;;;37.80;1.00;;;;;;5201219;28;20471;-70
2023/09/29 12:23:41;;;;;;;3.78;2.42;;;39.20;1.00;;;;;;5181256;28;20037;-71
2023/09/29 12:26:13;;;;;;;5.07;2.97;;;39.40;1.00;;;;;;5190389;28;20628;-71
2023/09/29 12:28:47;;;;;;;3.03;2.70;;;39.10;1.00;;;;;;5186665;28;20039;-72
2023/09/29 12:31:21;;;;;;;3.13;2.60;;;38.40;1.00;;;;;;5158742;28;20067;-72
2023/09/29 12:33:53;;;;;;;3.03;2.70;;;38.90;1.00;;;;;;5144389;28;20060;-70
2023/09/29 12:36:25;;;;;;;5.00;3.20;;;39.60;1.00;;;;;;5194677;28;20036;-71
2023/09/29 12:39:00;;;;;;;3.42;3.13;;;40.40;1.00;;;;;;5196118;28;20052;-72
2023/09/29 12:41:32;;;;;;;2.88;2.60;;;40.90;1.00;;;;;;5170645;28;20037;-71
2023/09/29 12:44:08;;;;;;;3.70;3.05;;;41.20;1.00;;;;;;5174417;28;20040;-70
2023/09/29 12:46:40;;;;;;;3.22;2.92;;;41.40;1.00;;;;;;5178989;28;20045;-73
2023/09/29 12:49:14;;;;;;;5.90;3.00;;;41.30;1.00;;;;;;5185849;28;20033;-72
2023/09/29 12:51:48;;;;;;;7.00;3.25;;;41.70;1.00;;;;;;5171987;28;20060;-71
2023/09/29 12:54:19;;;;;;;4.35;2.58;;;42.10;1.00;;;;;;5190142;28;20029;-71
2023/09/29 12:56:55;;;;;;;5.38;3.30;;;41.20;1.00;;;;;;5191825;28;20030;-71
2023/09/29 12:59:36;;;;;;;3.35;3.03;;;40.90;1.00;;;;;;5162640;28;20330;-71
2023/09/29 13:02:11;;;;;;;4.38;2.45;;;40.20;1.00;;;;;;5172512;28;20061;-74
2023/09/29 13:04:43;;;;;;;3.75;3.28;;;40.00;1.00;;;;;;5172507;28;20041;-71
2023/09/29 13:07:17;;;;;;;3.33;3.03;;;39.60;1.00;;;;;;5198756;28;20468;-72
2023/09/29 13:09:48;;;;;;;3.78;2.72;;;38.80;1.00;;;;;;5133129;28;20048;-72
2023/09/29 13:12:20;;;;;;;3.20;2.60;;;38.30;1.00;;;;;;5192274;28;20037;-72
2023/09/29 13:14:52;;;;;;;6.13;3.40;;;37.80;1.00;;;;;;5168750;28;20056;-71
2023/09/29 13:17:23;;;;;;;3.55;2.55;;;36.90;1.00;;;;;;5164293;28;20075;-71
2023/09/29 13:19:58;;;;;;;6.65;3.08;;;37.60;1.00;;;;;;5201073;28;20391;-73
2023/09/29 13:22:29;;;;;;;3.65;2.90;;;38.60;1.00;;;;;;5179724;28;20033;-72
2023/09/29 13:25:05;;;;;;;4.90;2.78;;;39.60;1.00;;;;;;5175870;28;20040;-70
2023/09/29 13:27:38;;;;;;;3.35;3.03;;;39.50;1.00;;;;;;5196137;28;20116;-72
2023/09/29 13:30:11;;;;;;;7.32;3.45;;;39.40;1.00;;;;;;5179537;28;20041;-71
2023/09/29 13:32:43;;;;;;;5.28;3.00;;;39.60;1.00;;;;;;5180219;28;20041;-72